Storden, Minnesota
Current Conditions -  °F | °C
As of 1:33 AM on Sunday 23 Nov 2014 (Local Time) from KMWM Reporting Station
Overcast Overcast  
Wind Chill: 44°   Ceiling: 1000
Heat Index: 48°   Visibility: 7mi
Dew Point: 46°   Wind: 10mph
Humidity: 93%   Direction: 190°S
Pressure: 29.45"   Gusts: NA
Location:  44.04°N, 95.32°W
Report Text: KMWM 230733Z AUTO 19009KT 7SM OVC010 09/08 A2945 RMK AO2
Loading
Personal Weather Stations






























Interactive Weather Map New forecast layout! Learn more

10-Day Weather Forecast

Advertisements
Track Severe Weather on mobile